Recent Speed Test Results

 
Download   Upload   Members   
 
Results over 50Mbps are highlighted.
Time arrow down       Size    Speed   User ConnectID Provider TID
Wed Sep 20 2017 @ 7:22:47 am Dallas, TX Android Detected SG arrow 1 MB 804 kbps 101 kB/sRHIED172791548745Root Sa historyTXEhVpWZP
Wed Sep 20 2017 @ 7:22:47 am Los Angeles, CA Android Detected SG arrow 2.8 MB 781 kbps 98 kB/s451305786433Sggs historyNBYe7k9gU
Wed Sep 20 2017 @ 7:22:47 am Frankfurt, DE Work NL arrow 110 MB 68.25 Mbps 8.53 MB/s19909113077877Ziggo history654T8jilq
Wed Sep 20 2017 @ 7:22:46 am Dallas, TX US arrow 3.9 MB 4.21 Mbps 526 kB/sEidaven41503997673Att Internet historyGnVu2mMHC
Wed Sep 20 2017 @ 7:22:43 am London, GB KE arrow 5.1 MB 1.84 Mbps 230 kB/s17992582251731 7PUdNWYxK
Wed Sep 20 2017 @ 7:22:39 am London, GB HR arrow 18.1 MB 7.9 Mbps 987 kB/s16982382569Optima Telekom historyUw6uWDT2f
Wed Sep 20 2017 @ 7:22:39 am Sydney, AU AU arrow 11.3 MB 16.51 Mbps 2.06 MB/sdwastbury1853731840314Tpg Internet historynqMlSBivP
Wed Sep 20 2017 @ 7:22:38 am Bangalore, IN Android Detected SG arrow 5.7 MB 4.41 Mbps 551 kB/s451305786433Sggs historySjXhTndMk
Wed Sep 20 2017 @ 7:22:37 am Tokyo, JP PH arrow 31.6 MB 9.66 Mbps 1.21 MB/s1013720197164Globe Telecom history1VUsaXFQM
Wed Sep 20 2017 @ 7:22:35 am Global Multithread US arrow 6.7 MB 10.47 Mbps 1.31 MB/sjdh428926894613028318Time Warner Cable historyu1RhFU-LA
Wed Sep 20 2017 @ 7:22:30 am Bangalore, IN IN arrow 6.1 MB 6.06 Mbps 758 kB/sBGLtest2499054630344Dishnet Wireless history12eF9kqw6
Wed Sep 20 2017 @ 7:22:28 am Dallas, TX US arrow 18.6 MB 26.01 Mbps 3.25 MB/sEidaven41503997673Att Internet historyMapv20QEg
Wed Sep 20 2017 @ 7:22:25 am Bangalore, IN Android Detected PH arrow 1.3 MB 826 kbps 103 kB/s1028904844217Globe Telecom historyt3MLl5ioj
Wed Sep 20 2017 @ 7:22:23 am Dallas, TX PH arrow 4 MB 3.3 Mbps 412 kB/s10289514058791Philippine Long history3R8Ai4VBd
Wed Sep 20 2017 @ 7:22:20 am London, GB GB arrow 576 kB 90 kbps 11 kB/s1698355758361Interfiber Ltd historyOHsbmqrYg
Wed Sep 20 2017 @ 7:22:19 am London, GB ZA arrow 256 kB 194 kbps 24 kB/sDTBA9648259797Cell C history2rGdSEHvp
Wed Sep 20 2017 @ 7:22:19 am Dallas, TX SE arrow 6.2 MB 3.53 Mbps 442 kB/s1780009451898Resilans Ab historybBLufi25E
Wed Sep 20 2017 @ 7:22:11 am Sydney, AU AU arrow 384 kB 400 kbps 50 kB/s1863588027399Iinet Limited historyDvUgat8Ml
Wed Sep 20 2017 @ 7:22:11 am Dallas, TX PH arrow 4.7 MB 6.43 Mbps 804 kB/s110312231598Comclark Network historyhODLFck4J
Wed Sep 20 2017 @ 7:22:09 am Los Angeles, CA Android Detected SG arrow 1.3 MB 1.62 Mbps 203 kB/s451305786433Sggs historybQJxnzISB
Wed Sep 20 2017 @ 7:22:09 am Bangalore, IN IN arrow 71.4 MB 5.49 Mbps 687 kB/sBGLtest2499054630344Dishnet Wireless historynMZXTc8a1
Wed Sep 20 2017 @ 7:22:09 am Singapore, SG Android Detected SG arrow 1.3 MB 1.16 Mbps 146 kB/s1727915472718Root Sa historyxsbMzwGD9
Wed Sep 20 2017 @ 7:22:08 am Dallas, TX US arrow 1.1 MB 1.01 Mbps 126 kB/s627188008633Comcast Cable history7NyZigcO2
Wed Sep 20 2017 @ 7:22:07 am Dallas, TX CA arrow 44.6 MB 8.8 Mbps 1.1 MB/s1586228961007Distributel historyYHd2eqVoG
Wed Sep 20 2017 @ 7:22:06 am Dallas, TX Home US arrow 256 kB 262 kbps 33 kB/sccsewell16922341846Hughes Network historyILet2EMVF
Wed Sep 20 2017 @ 7:22:05 am London, GB NA arrow 1.3 MB 450 kbps 56 kB/s18087131856910Telecom Namibia historysMIa0fvCb
Wed Sep 20 2017 @ 7:22:05 am Dallas, TX US arrow 126.3 MB 120.42 Mbps 15.05 MB/s1588182721843Windstream historyC7hldIPvY
Wed Sep 20 2017 @ 7:21:59 am London, GB TG arrow 1.3 MB 321 kbps 40 kB/s1418745267Cafe Informatique historyX429zReqB
Wed Sep 20 2017 @ 7:21:58 am Dallas, TX PH arrow 4.9 MB 3.44 Mbps 431 kB/s10289514058791Philippine Long historylr5GWzUmF
Wed Sep 20 2017 @ 7:21:57 am London, GB ZA arrow 256 kB 167 kbps 21 kB/sDTBA9648259797Cell C historyBaynATejp
Wed Sep 20 2017 @ 7:21:57 am Singapore, SG NP arrow 12 MB 7.18 Mbps 897 kB/s451517201679Classictech Pvt historyXcSngCUqJ
Wed Sep 20 2017 @ 7:21:56 am Dallas, TX Home US arrow 38 MB 36.26 Mbps 4.53 MB/sccsewell16922341846Hughes Network historyOvt1XxkFj
Wed Sep 20 2017 @ 7:21:56 am London, GB GB arrow 36.1 MB 37.15 Mbps 4.64 MB/s73054488934Tiscali Uk Limited historyk1vcD7M3x
Wed Sep 20 2017 @ 7:21:52 am London, GB KE arrow 624 kB 178 kbps 22 kB/s3772552964605Ses Astra Sa historyPcqZ2rSmf
Wed Sep 20 2017 @ 7:21:51 am Sydney, AU AU arrow 1 MB 815 kbps 102 kB/sJohnBilling5524462485383Tpg Internet historytxUaSyj8w
Wed Sep 20 2017 @ 7:21:51 am San Francisco, CA US arrow 11.6 MB 18.22 Mbps 2.28 MB/s650837905164Integra Telecom historywvOPJEiF0
Wed Sep 20 2017 @ 7:21:45 am Los Angeles, CA Android Detected PH arrow 1.3 MB 2.06 Mbps 258 kB/s1028904844217Globe Telecom history3mCqShcxO
Wed Sep 20 2017 @ 7:21:44 am Dallas, TX US arrow 1.2 MB 1.49 Mbps 186 kB/s190916042466101netlink historygAVMKW7r5
Wed Sep 20 2017 @ 7:21:43 am Dallas, TX US arrow 6.2 MB 10.97 Mbps 1.37 MB/sjbjones1298243735822Time Warner Cable history1sK3l9gSq
Wed Sep 20 2017 @ 7:21:43 am Bangalore, IN Android Detected SG arrow 5.3 MB 3.02 Mbps 378 kB/s451305786433Sggs historyegGbFCtJh
Wed Sep 20 2017 @ 7:21:42 am Sydney, AU AU arrow 2.4 MB 1.72 Mbps 215 kB/s927728008398Telstra Internet historygxjWPIeln
Wed Sep 20 2017 @ 7:21:37 am Dallas, TX US arrow 736 kB 505 kbps 63 kB/s627188008633Comcast Cable historyQtmPfcYEC
Wed Sep 20 2017 @ 7:21:35 am San Francisco, CA US arrow 37.6 MB 21.1 Mbps 2.64 MB/s650837905164Integra Telecom historyct7xCnDaF
Wed Sep 20 2017 @ 7:21:35 am Sydney, AU AU arrow 43.1 MB 4.5 Mbps 562 kB/sJohnBilling5524462485383Tpg Internet historybquMRCVQc
Wed Sep 20 2017 @ 7:21:33 am Tokyo, JP PH arrow 6.4 MB 13.57 Mbps 1.7 MB/s11236683502Philippine Long historySzTULb1cC
Wed Sep 20 2017 @ 7:21:32 am Dallas, TX US arrow 63.3 MB 46.13 Mbps 5.77 MB/sjbjones1298243735822Time Warner Cable historyY28H4LFcg
Wed Sep 20 2017 @ 7:21:31 am Sydney, AU Home AU arrow 256 kB 148 kbps 19 kB/sajaxozy1450213385158Myrepublic historypzjUA5Eth
Wed Sep 20 2017 @ 7:21:30 am Dallas, TX IN arrow 1.3 MB 242 kbps 30 kB/s1296641009National historyps6hbgkRX
Wed Sep 20 2017 @ 7:21:30 am London, GB PH arrow 18.3 MB 8 Mbps 999 kB/s112376553140Philippine Long historyy1MKe32Gl
Wed Sep 20 2017 @ 7:21:26 am Singapore, SG ID arrow 25.6 MB 26.58 Mbps 3.32 MB/s1671343833387Biznet Isp historylt541UZu7
  
Speed Test Version 15.9
© 2017 TestMy Net LLC - TestMy.net - Terms & Privacy - Mobile